sensor_id;sensor_type;location;lat;lon;timestamp;temperature;humidity
57218;DHT22;43078;52.972;6.482;2023-05-02T00:01:26;13.70;99.90
57218;DHT22;43078;52.972;6.482;2023-05-02T00:03:51;13.60;99.90
57218;DHT22;43078;52.972;6.482;2023-05-02T00:06:17;13.50;99.90
57218;DHT22;43078;52.972;6.482;2023-05-02T00:08:43;13.50;99.90
57218;DHT22;43078;52.972;6.482;2023-05-02T00:11:09;13.50;99.90
57218;DHT22;43078;52.972;6.482;2023-05-02T00:13:34;13.40;99.90
57218;DHT22;43078;52.972;6.482;2023-05-02T00:16:00;13.40;99.90
57218;DHT22;43078;52.972;6.482;2023-05-02T00:18:26;13.30;99.90
57218;DHT22;43078;52.972;6.482;2023-05-02T00:20:51;13.20;99.90
57218;DHT22;43078;52.972;6.482;2023-05-02T00:23:17;13.20;99.90
57218;DHT22;43078;52.972;6.482;2023-05-02T00:25:44;13.20;99.90
57218;DHT22;43078;52.972;6.482;2023-05-02T00:28:10;13.20;99.90
57218;DHT22;43078;52.972;6.482;2023-05-02T00:30:36;13.20;99.90
57218;DHT22;43078;52.972;6.482;2023-05-02T00:33:01;13.20;99.90
57218;DHT22;43078;52.972;6.482;2023-05-02T00:35:27;13.10;99.90
57218;DHT22;43078;52.972;6.482;2023-05-02T00:37:52;13.10;99.90
57218;DHT22;43078;52.972;6.482;2023-05-02T00:40:18;13.10;99.90
57218;DHT22;43078;52.972;6.482;2023-05-02T00:42:44;13.10;99.90
57218;DHT22;43078;52.972;6.482;2023-05-02T00:45:09;13.00;99.90
57218;DHT22;43078;52.972;6.482;2023-05-02T00:47:36;13.10;99.90
57218;DHT22;43078;52.972;6.482;2023-05-02T00:50:01;13.00;99.90
57218;DHT22;43078;52.972;6.482;2023-05-02T00:52:30;13.00;99.90
57218;DHT22;43078;52.972;6.482;2023-05-02T00:54:55;13.00;99.90
57218;DHT22;43078;52.972;6.482;2023-05-02T00:57:21;13.00;99.90
57218;DHT22;43078;52.972;6.482;2023-05-02T00:59:47;13.00;99.90
57218;DHT22;43078;52.972;6.482;2023-05-02T01:02:52;13.00;99.90
57218;DHT22;43078;52.972;6.482;2023-05-02T01:05:27;13.00;99.90
57218;DHT22;43078;52.972;6.482;2023-05-02T01:08:12;13.00;99.90
57218;DHT22;43078;52.972;6.482;2023-05-02T01:11:04;13.00;99.90
57218;DHT22;43078;52.972;6.482;2023-05-02T01:13:33;12.90;99.90
57218;DHT22;43078;52.972;6.482;2023-05-02T01:16:01;12.90;99.90
57218;DHT22;43078;52.972;6.482;2023-05-02T01:18:32;12.90;99.90
57218;DHT22;43078;52.972;6.482;2023-05-02T01:21:09;12.90;99.90
57218;DHT22;43078;52.972;6.482;2023-05-02T01:23:47;12.80;99.90
57218;DHT22;43078;52.972;6.482;2023-05-02T01:29:01;12.80;99.90
57218;DHT22;43078;52.972;6.482;2023-05-02T01:31:34;12.90;99.90
57218;DHT22;43078;52.972;6.482;2023-05-02T01:34:01;12.90;99.90
57218;DHT22;43078;52.972;6.482;2023-05-02T01:36:30;12.90;99.90
57218;DHT22;43078;52.972;6.482;2023-05-02T01:38:58;12.90;99.90
57218;DHT22;43078;52.972;6.482;2023-05-02T01:41:26;12.90;99.90
57218;DHT22;43078;52.972;6.482;2023-05-02T01:43:57;12.90;99.90
57218;DHT22;43078;52.972;6.482;2023-05-02T01:46:30;12.90;99.90
57218;DHT22;43078;52.972;6.482;2023-05-02T01:48:57;12.90;99.90
57218;DHT22;43078;52.972;6.482;2023-05-02T01:51:28;12.90;99.90
57218;DHT22;43078;52.972;6.482;2023-05-02T01:53:58;12.90;99.90
57218;DHT22;43078;52.972;6.482;2023-05-02T01:56:25;12.90;99.90
57218;DHT22;43078;52.972;6.482;2023-05-02T01:58:53;12.90;99.90
57218;DHT22;43078;52.972;6.482;2023-05-02T02:01:19;12.80;99.90
57218;DHT22;43078;52.972;6.482;2023-05-02T02:03:47;12.80;99.90
57218;DHT22;43078;52.972;6.482;2023-05-02T02:06:13;12.80;99.90
57218;DHT22;43078;52.972;6.482;2023-05-02T02:08:40;12.70;99.90
57218;DHT22;43078;52.972;6.482;2023-05-02T02:11:09;12.60;99.90
57218;DHT22;43078;52.972;6.482;2023-05-02T02:13:43;12.50;99.90
57218;DHT22;43078;52.972;6.482;2023-05-02T02:16:11;12.40;99.90
57218;DHT22;43078;52.972;6.482;2023-05-02T02:18:38;12.30;99.90
57218;DHT22;43078;52.972;6.482;2023-05-02T02:21:08;12.30;99.90
57218;DHT22;43078;52.972;6.482;2023-05-02T02:23:37;12.20;99.90
57218;DHT22;43078;52.972;6.482;2023-05-02T02:26:04;12.20;99.90
57218;DHT22;43078;52.972;6.482;2023-05-02T02:28:32;12.10;99.90
57218;DHT22;43078;52.972;6.482;2023-05-02T02:30:58;12.00;99.90
57218;DHT22;43078;52.972;6.482;2023-05-02T02:33:29;12.00;99.90
57218;DHT22;43078;52.972;6.482;2023-05-02T02:36:18;11.90;99.90
57218;DHT22;43078;52.972;6.482;2023-05-02T02:38:53;11.90;99.90
57218;DHT22;43078;52.972;6.482;2023-05-02T02:41:26;11.70;99.90
57218;DHT22;43078;52.972;6.482;2023-05-02T02:43:59;11.70;99.90
57218;DHT22;43078;52.972;6.482;2023-05-02T02:49:14;11.50;99.90
57218;DHT22;43078;52.972;6.482;2023-05-02T02:52:09;11.30;99.90
57218;DHT22;43078;52.972;6.482;2023-05-02T02:54:46;11.30;99.90
57218;DHT22;43078;52.972;6.482;2023-05-02T02:57:26;11.10;99.90
57218;DHT22;43078;52.972;6.482;2023-05-02T03:02:24;11.10;99.90
57218;DHT22;43078;52.972;6.482;2023-05-02T03:04:52;11.00;99.90
57218;DHT22;43078;52.972;6.482;2023-05-02T03:07:19;11.00;99.90
57218;DHT22;43078;52.972;6.482;2023-05-02T03:09:48;11.00;99.90
57218;DHT22;43078;52.972;6.482;2023-05-02T03:12:13;11.00;99.90
57218;DHT22;43078;52.972;6.482;2023-05-02T03:14:39;10.90;99.90
57218;DHT22;43078;52.972;6.482;2023-05-02T03:17:05;10.90;99.90
57218;DHT22;43078;52.972;6.482;2023-05-02T03:19:33;10.80;99.90
57218;DHT22;43078;52.972;6.482;2023-05-02T03:21:58;10.70;99.90
57218;DHT22;43078;52.972;6.482;2023-05-02T03:24:24;10.70;99.90
57218;DHT22;43078;52.972;6.482;2023-05-02T03:26:54;10.60;99.90
57218;DHT22;43078;52.972;6.482;2023-05-02T03:29:20;10.50;99.90
57218;DHT22;43078;52.972;6.482;2023-05-02T03:31:46;10.50;99.90
57218;DHT22;43078;52.972;6.482;2023-05-02T03:34:12;10.50;99.90
57218;DHT22;43078;52.972;6.482;2023-05-02T03:36:37;10.60;99.90
57218;DHT22;43078;52.972;6.482;2023-05-02T03:39:03;10.60;99.90
57218;DHT22;43078;52.972;6.482;2023-05-02T03:41:29;10.50;99.90
57218;DHT22;43078;52.972;6.482;2023-05-02T03:43:54;10.40;99.90
57218;DHT22;43078;52.972;6.482;2023-05-02T03:46:20;10.30;99.90
57218;DHT22;43078;52.972;6.482;2023-05-02T03:48:46;10.30;99.90
57218;DHT22;43078;52.972;6.482;2023-05-02T03:51:11;10.30;99.90
57218;DHT22;43078;52.972;6.482;2023-05-02T03:53:37;10.30;99.90
57218;DHT22;43078;52.972;6.482;2023-05-02T03:56:03;10.20;99.90
57218;DHT22;43078;52.972;6.482;2023-05-02T03:58:29;10.20;99.90
57218;DHT22;43078;52.972;6.482;2023-05-02T04:00:55;10.10;99.90
57218;DHT22;43078;52.972;6.482;2023-05-02T04:03:21;10.10;99.90
57218;DHT22;43078;52.972;6.482;2023-05-02T04:05:47;10.10;99.90
57218;DHT22;43078;52.972;6.482;2023-05-02T04:08:12;10.00;99.90
57218;DHT22;43078;52.972;6.482;2023-05-02T04:10:39;10.00;99.90
57218;DHT22;43078;52.972;6.482;2023-05-02T04:13:04;10.00;99.90
57218;DHT22;43078;52.972;6.482;2023-05-02T04:15:30;10.00;99.70
57218;DHT22;43078;52.972;6.482;2023-05-02T04:17:59;10.00;99.90
57218;DHT22;43078;52.972;6.482;2023-05-02T04:20:25;10.00;99.90
57218;DHT22;43078;52.972;6.482;2023-05-02T04:22:51;9.90;99.90
57218;DHT22;43078;52.972;6.482;2023-05-02T04:25:17;9.90;99.90
57218;DHT22;43078;52.972;6.482;2023-05-02T04:27:43;9.90;99.90
57218;DHT22;43078;52.972;6.482;2023-05-02T04:30:09;9.90;99.90
57218;DHT22;43078;52.972;6.482;2023-05-02T04:32:37;9.90;99.90
57218;DHT22;43078;52.972;6.482;2023-05-02T04:35:03;9.90;99.80
57218;DHT22;43078;52.972;6.482;2023-05-02T04:37:30;9.90;99.70
57218;DHT22;43078;52.972;6.482;2023-05-02T04:39:55;9.80;98.80
57218;DHT22;43078;52.972;6.482;2023-05-02T04:42:21;9.80;99.20
57218;DHT22;43078;52.972;6.482;2023-05-02T04:44:50;9.70;99.80
57218;DHT22;43078;52.972;6.482;2023-05-02T04:47:16;9.70;99.30
57218;DHT22;43078;52.972;6.482;2023-05-02T04:49:42;9.70;99.70
57218;DHT22;43078;52.972;6.482;2023-05-02T04:52:11;9.80;99.90
57218;DHT22;43078;52.972;6.482;2023-05-02T04:54:36;9.80;99.10
57218;DHT22;43078;52.972;6.482;2023-05-02T04:57:02;9.70;98.60
57218;DHT22;43078;52.972;6.482;2023-05-02T04:59:30;9.60;98.50
57218;DHT22;43078;52.972;6.482;2023-05-02T05:01:56;9.70;98.60
57218;DHT22;43078;52.972;6.482;2023-05-02T05:04:22;9.60;99.10
57218;DHT22;43078;52.972;6.482;2023-05-02T05:06:48;9.60;99.10
57218;DHT22;43078;52.972;6.482;2023-05-02T05:09:14;9.60;99.30
57218;DHT22;43078;52.972;6.482;2023-05-02T05:11:40;9.60;99.10
57218;DHT22;43078;52.972;6.482;2023-05-02T05:14:08;9.50;98.10
57218;DHT22;43078;52.972;6.482;2023-05-02T05:16:33;9.50;97.90
57218;DHT22;43078;52.972;6.482;2023-05-02T05:18:59;9.50;98.80
57218;DHT22;43078;52.972;6.482;2023-05-02T05:21:25;9.40;99.90
57218;DHT22;43078;52.972;6.482;2023-05-02T05:23:52;9.50;99.90
57218;DHT22;43078;52.972;6.482;2023-05-02T05:26:18;9.50;99.90
57218;DHT22;43078;52.972;6.482;2023-05-02T05:28:44;9.50;98.90
57218;DHT22;43078;52.972;6.482;2023-05-02T05:31:11;9.50;97.80
57218;DHT22;43078;52.972;6.482;2023-05-02T05:33:37;9.40;98.70
57218;DHT22;43078;52.972;6.482;2023-05-02T05:36:07;9.50;99.60
57218;DHT22;43078;52.972;6.482;2023-05-02T05:38:33;9.50;99.90
57218;DHT22;43078;52.972;6.482;2023-05-02T05:40:59;9.50;99.50
57218;DHT22;43078;52.972;6.482;2023-05-02T05:43:26;9.50;98.70
57218;DHT22;43078;52.972;6.482;2023-05-02T05:45:52;9.50;98.80
57218;DHT22;43078;52.972;6.482;2023-05-02T05:48:18;9.50;98.80
57218;DHT22;43078;52.972;6.482;2023-05-02T05:50:43;9.50;98.80
57218;DHT22;43078;52.972;6.482;2023-05-02T05:53:09;9.50;99.20
57218;DHT22;43078;52.972;6.482;2023-05-02T05:55:35;9.50;98.60
57218;DHT22;43078;52.972;6.482;2023-05-02T05:58:02;9.50;98.00
57218;DHT22;43078;52.972;6.482;2023-05-02T06:00:28;9.50;97.50
57218;DHT22;43078;52.972;6.482;2023-05-02T06:02:54;9.40;97.30
57218;DHT22;43078;52.972;6.482;2023-05-02T06:05:19;9.50;96.60
57218;DHT22;43078;52.972;6.482;2023-05-02T06:07:45;9.50;97.80
57218;DHT22;43078;52.972;6.482;2023-05-02T06:10:11;9.50;98.80
57218;DHT22;43078;52.972;6.482;2023-05-02T06:12:36;9.50;97.10
57218;DHT22;43078;52.972;6.482;2023-05-02T06:15:02;9.40;96.00
57218;DHT22;43078;52.972;6.482;2023-05-02T06:17:28;9.40;96.00
57218;DHT22;43078;52.972;6.482;2023-05-02T06:19:53;9.40;96.40
57218;DHT22;43078;52.972;6.482;2023-05-02T06:22:19;9.40;96.20
57218;DHT22;43078;52.972;6.482;2023-05-02T06:24:45;9.40;97.20
57218;DHT22;43078;52.972;6.482;2023-05-02T06:27:10;9.40;97.30
57218;DHT22;43078;52.972;6.482;2023-05-02T06:29:36;9.50;97.20
57218;DHT22;43078;52.972;6.482;2023-05-02T06:32:01;9.50;96.80
57218;DHT22;43078;52.972;6.482;2023-05-02T06:34:31;9.40;97.30
57218;DHT22;43078;52.972;6.482;2023-05-02T06:36:57;9.50;97.00
57218;DHT22;43078;52.972;6.482;2023-05-02T06:39:23;9.40;96.80
57218;DHT22;43078;52.972;6.482;2023-05-02T06:41:49;9.40;96.50
57218;DHT22;43078;52.972;6.482;2023-05-02T06:44:14;9.40;96.60
57218;DHT22;43078;52.972;6.482;2023-05-02T06:46:41;9.40;97.60
57218;DHT22;43078;52.972;6.482;2023-05-02T06:49:06;9.40;98.10
57218;DHT22;43078;52.972;6.482;2023-05-02T06:51:32;9.50;98.20
57218;DHT22;43078;52.972;6.482;2023-05-02T06:53:57;9.50;97.80
57218;DHT22;43078;52.972;6.482;2023-05-02T06:56:24;9.40;98.10
57218;DHT22;43078;52.972;6.482;2023-05-02T06:58:50;9.50;97.90
57218;DHT22;43078;52.972;6.482;2023-05-02T07:01:16;9.50;97.80
57218;DHT22;43078;52.972;6.482;2023-05-02T07:03:42;9.50;98.20
57218;DHT22;43078;52.972;6.482;2023-05-02T07:06:07;9.60;98.10
57218;DHT22;43078;52.972;6.482;2023-05-02T07:08:34;9.60;97.30
57218;DHT22;43078;52.972;6.482;2023-05-02T07:10:59;9.60;96.40
57218;DHT22;43078;52.972;6.482;2023-05-02T07:13:25;9.50;95.30
57218;DHT22;43078;52.972;6.482;2023-05-02T07:15:52;9.50;95.00
57218;DHT22;43078;52.972;6.482;2023-05-02T07:18:17;9.50;95.60
57218;DHT22;43078;52.972;6.482;2023-05-02T07:20:43;9.50;97.50
57218;DHT22;43078;52.972;6.482;2023-05-02T07:23:08;9.60;97.80
57218;DHT22;43078;52.972;6.482;2023-05-02T07:25:34;9.50;96.40
57218;DHT22;43078;52.972;6.482;2023-05-02T07:28:01;9.50;96.80
57218;DHT22;43078;52.972;6.482;2023-05-02T07:30:26;9.50;96.10
57218;DHT22;43078;52.972;6.482;2023-05-02T07:32:52;9.50;96.00
57218;DHT22;43078;52.972;6.482;2023-05-02T07:35:17;9.50;96.90
57218;DHT22;43078;52.972;6.482;2023-05-02T07:37:43;9.50;95.80
57218;DHT22;43078;52.972;6.482;2023-05-02T07:40:09;9.40;94.20
57218;DHT22;43078;52.972;6.482;2023-05-02T07:42:34;9.40;94.40
57218;DHT22;43078;52.972;6.482;2023-05-02T07:45:01;9.30;94.30
57218;DHT22;43078;52.972;6.482;2023-05-02T07:47:27;9.30;94.30
57218;DHT22;43078;52.972;6.482;2023-05-02T07:49:54;9.30;94.30
57218;DHT22;43078;52.972;6.482;2023-05-02T07:52:20;9.30;95.00
57218;DHT22;43078;52.972;6.482;2023-05-02T07:54:48;9.30;94.90
57218;DHT22;43078;52.972;6.482;2023-05-02T07:57:14;9.30;94.30
57218;DHT22;43078;52.972;6.482;2023-05-02T07:59:40;9.30;94.60
57218;DHT22;43078;52.972;6.482;2023-05-02T08:02:06;9.30;93.80
57218;DHT22;43078;52.972;6.482;2023-05-02T08:04:32;9.40;94.00
57218;DHT22;43078;52.972;6.482;2023-05-02T08:06:57;9.30;93.90
57218;DHT22;43078;52.972;6.482;2023-05-02T08:09:23;9.30;93.40
57218;DHT22;43078;52.972;6.482;2023-05-02T08:11:49;9.30;93.50
57218;DHT22;43078;52.972;6.482;2023-05-02T08:14:15;9.40;93.20
57218;DHT22;43078;52.972;6.482;2023-05-02T08:16:41;9.40;94.20
57218;DHT22;43078;52.972;6.482;2023-05-02T08:19:07;9.40;93.00
57218;DHT22;43078;52.972;6.482;2023-05-02T08:21:33;9.40;92.60
57218;DHT22;43078;52.972;6.482;2023-05-02T08:23:59;9.50;93.20
57218;DHT22;43078;52.972;6.482;2023-05-02T08:26:25;9.50;94.20
57218;DHT22;43078;52.972;6.482;2023-05-02T08:28:51;9.50;93.50
57218;DHT22;43078;52.972;6.482;2023-05-02T08:31:17;9.50;94.50
57218;DHT22;43078;52.972;6.482;2023-05-02T08:33:42;9.60;95.50
57218;DHT22;43078;52.972;6.482;2023-05-02T08:36:13;9.60;95.00
57218;DHT22;43078;52.972;6.482;2023-05-02T08:38:39;9.60;94.60
57218;DHT22;43078;52.972;6.482;2023-05-02T08:41:16;9.70;94.70
57218;DHT22;43078;52.972;6.482;2023-05-02T08:43:42;9.70;94.90
57218;DHT22;43078;52.972;6.482;2023-05-02T08:46:09;9.70;94.50
57218;DHT22;43078;52.972;6.482;2023-05-02T08:48:36;9.70;94.20
57218;DHT22;43078;52.972;6.482;2023-05-02T08:51:03;9.70;94.10
57218;DHT22;43078;52.972;6.482;2023-05-02T08:53:34;9.70;94.30
57218;DHT22;43078;52.972;6.482;2023-05-02T08:56:00;9.70;94.40
57218;DHT22;43078;52.972;6.482;2023-05-02T08:58:26;9.80;93.30
57218;DHT22;43078;52.972;6.482;2023-05-02T09:00:52;9.70;94.10
57218;DHT22;43078;52.972;6.482;2023-05-02T09:03:29;9.80;94.30
57218;DHT22;43078;52.972;6.482;2023-05-02T09:06:07;9.80;94.70
57218;DHT22;43078;52.972;6.482;2023-05-02T09:08:36;9.80;94.50
57218;DHT22;43078;52.972;6.482;2023-05-02T09:11:03;9.80;94.10
57218;DHT22;43078;52.972;6.482;2023-05-02T09:13:33;9.80;93.50
57218;DHT22;43078;52.972;6.482;2023-05-02T09:18:35;9.80;94.80
57218;DHT22;43078;52.972;6.482;2023-05-02T09:21:05;9.90;95.10
57218;DHT22;43078;52.972;6.482;2023-05-02T09:28:42;10.00;94.10
57218;DHT22;43078;52.972;6.482;2023-05-02T09:31:19;10.00;94.30
57218;DHT22;43078;52.972;6.482;2023-05-02T09:33:46;10.00;95.20
57218;DHT22;43078;52.972;6.482;2023-05-02T09:36:15;10.10;95.30
57218;DHT22;43078;52.972;6.482;2023-05-02T09:38:45;10.10;95.30
57218;DHT22;43078;52.972;6.482;2023-05-02T09:41:11;10.10;94.90
57218;DHT22;43078;52.972;6.482;2023-05-02T09:43:38;10.20;94.70
57218;DHT22;43078;52.972;6.482;2023-05-02T09:46:08;10.20;95.40
57218;DHT22;43078;52.972;6.482;2023-05-02T09:48:56;10.30;95.50
57218;DHT22;43078;52.972;6.482;2023-05-02T09:51:26;10.30;94.80
57218;DHT22;43078;52.972;6.482;2023-05-02T09:53:52;10.30;93.90
57218;DHT22;43078;52.972;6.482;2023-05-02T09:56:18;10.40;92.90
57218;DHT22;43078;52.972;6.482;2023-05-02T09:58:44;10.40;92.90
57218;DHT22;43078;52.972;6.482;2023-05-02T10:01:17;10.40;93.20
57218;DHT22;43078;52.972;6.482;2023-05-02T10:03:46;10.50;93.60
57218;DHT22;43078;52.972;6.482;2023-05-02T10:06:12;10.50;93.10
57218;DHT22;43078;52.972;6.482;2023-05-02T10:08:38;10.50;93.70
57218;DHT22;43078;52.972;6.482;2023-05-02T10:11:06;10.50;94.60
57218;DHT22;43078;52.972;6.482;2023-05-02T10:13:33;10.60;93.70
57218;DHT22;43078;52.972;6.482;2023-05-02T10:16:06;10.60;93.60
57218;DHT22;43078;52.972;6.482;2023-05-02T10:18:47;10.60;93.40
57218;DHT22;43078;52.972;6.482;2023-05-02T10:21:16;10.60;91.70
57218;DHT22;43078;52.972;6.482;2023-05-02T10:23:44;10.60;93.00
57218;DHT22;43078;52.972;6.482;2023-05-02T10:26:16;10.70;92.50
57218;DHT22;43078;52.972;6.482;2023-05-02T10:28:41;10.70;93.00
57218;DHT22;43078;52.972;6.482;2023-05-02T10:31:12;10.70;92.50
57218;DHT22;43078;52.972;6.482;2023-05-02T10:33:38;10.80;91.90
57218;DHT22;43078;52.972;6.482;2023-05-02T10:36:07;10.80;90.60
57218;DHT22;43078;52.972;6.482;2023-05-02T10:38:34;10.80;90.70
57218;DHT22;43078;52.972;6.482;2023-05-02T10:41:03;10.80;92.10
57218;DHT22;43078;52.972;6.482;2023-05-02T10:43:32;10.90;92.50
57218;DHT22;43078;52.972;6.482;2023-05-02T10:45:58;10.90;91.50
57218;DHT22;43078;52.972;6.482;2023-05-02T10:48:25;10.90;91.00
57218;DHT22;43078;52.972;6.482;2023-05-02T10:50:52;11.00;91.00
57218;DHT22;43078;52.972;6.482;2023-05-02T10:56:19;11.00;90.80
57218;DHT22;43078;52.972;6.482;2023-05-02T10:58:51;11.00;92.00
57218;DHT22;43078;52.972;6.482;2023-05-02T11:06:23;11.00;91.50
57218;DHT22;43078;52.972;6.482;2023-05-02T11:08:49;11.00;90.60
57218;DHT22;43078;52.972;6.482;2023-05-02T11:11:40;11.00;91.20
57218;DHT22;43078;52.972;6.482;2023-05-02T11:14:06;11.10;91.00
57218;DHT22;43078;52.972;6.482;2023-05-02T11:19:24;11.20;90.80
57218;DHT22;43078;52.972;6.482;2023-05-02T11:21:49;11.30;92.20
57218;DHT22;43078;52.972;6.482;2023-05-02T11:24:43;11.40;92.90
57218;DHT22;43078;52.972;6.482;2023-05-02T11:32:20;11.40;90.00
57218;DHT22;43078;52.972;6.482;2023-05-02T11:34:48;11.40;89.00
57218;DHT22;43078;52.972;6.482;2023-05-02T11:37:17;11.40;88.00
57218;DHT22;43078;52.972;6.482;2023-05-02T11:39:43;11.40;89.20
57218;DHT22;43078;52.972;6.482;2023-05-02T11:42:27;11.30;89.40
57218;DHT22;43078;52.972;6.482;2023-05-02T11:44:58;11.30;90.90
57218;DHT22;43078;52.972;6.482;2023-05-02T11:47:25;11.30;90.90
57218;DHT22;43078;52.972;6.482;2023-05-02T11:49:54;11.30;91.20
57218;DHT22;43078;52.972;6.482;2023-05-02T11:52:20;11.40;91.90
57218;DHT22;43078;52.972;6.482;2023-05-02T11:54:45;11.40;92.00
57218;DHT22;43078;52.972;6.482;2023-05-02T11:57:11;11.40;91.70
57218;DHT22;43078;52.972;6.482;2023-05-02T12:02:16;11.50;91.30
57218;DHT22;43078;52.972;6.482;2023-05-02T12:04:44;11.40;91.30
57218;DHT22;43078;52.972;6.482;2023-05-02T12:07:10;11.50;91.70
57218;DHT22;43078;52.972;6.482;2023-05-02T12:09:49;11.50;92.30
57218;DHT22;43078;52.972;6.482;2023-05-02T12:12:19;11.60;93.20
57218;DHT22;43078;52.972;6.482;2023-05-02T12:14:45;11.70;94.40
57218;DHT22;43078;52.972;6.482;2023-05-02T12:17:11;11.70;93.60
57218;DHT22;43078;52.972;6.482;2023-05-02T12:19:36;11.70;92.30
57218;DHT22;43078;52.972;6.482;2023-05-02T12:22:03;11.80;92.20
57218;DHT22;43078;52.972;6.482;2023-05-02T12:24:28;11.80;92.90
57218;DHT22;43078;52.972;6.482;2023-05-02T12:27:10;11.80;92.30
57218;DHT22;43078;52.972;6.482;2023-05-02T12:29:38;11.80;90.40
57218;DHT22;43078;52.972;6.482;2023-05-02T12:32:03;11.80;90.70
57218;DHT22;43078;52.972;6.482;2023-05-02T12:34:33;11.90;91.30
57218;DHT22;43078;52.972;6.482;2023-05-02T12:37:00;11.90;92.40
57218;DHT22;43078;52.972;6.482;2023-05-02T12:39:39;12.00;92.70
57218;DHT22;43078;52.972;6.482;2023-05-02T12:42:13;12.00;92.20
57218;DHT22;43078;52.972;6.482;2023-05-02T12:44:43;12.00;92.80
57218;DHT22;43078;52.972;6.482;2023-05-02T12:47:13;11.90;91.80
57218;DHT22;43078;52.972;6.482;2023-05-02T12:49:53;11.90;92.80
57218;DHT22;43078;52.972;6.482;2023-05-02T12:52:48;11.90;93.00
57218;DHT22;43078;52.972;6.482;2023-05-02T12:55:18;11.90;92.10
57218;DHT22;43078;52.972;6.482;2023-05-02T12:57:44;11.90;92.40
57218;DHT22;43078;52.972;6.482;2023-05-02T13:00:10;11.90;91.40
57218;DHT22;43078;52.972;6.482;2023-05-02T13:02:36;12.00;91.70
57218;DHT22;43078;52.972;6.482;2023-05-02T13:05:16;12.00;92.30
57218;DHT22;43078;52.972;6.482;2023-05-02T13:07:41;12.10;92.70
57218;DHT22;43078;52.972;6.482;2023-05-02T13:10:07;12.10;92.80
57218;DHT22;43078;52.972;6.482;2023-05-02T13:12:34;12.10;91.30
57218;DHT22;43078;52.972;6.482;2023-05-02T13:15:06;12.10;90.70
57218;DHT22;43078;52.972;6.482;2023-05-02T13:17:33;12.10;91.60
57218;DHT22;43078;52.972;6.482;2023-05-02T13:19:59;12.10;91.50
57218;DHT22;43078;52.972;6.482;2023-05-02T13:22:26;12.20;92.00
57218;DHT22;43078;52.972;6.482;2023-05-02T13:24:52;12.20;91.50
57218;DHT22;43078;52.972;6.482;2023-05-02T13:27:18;12.20;92.40
57218;DHT22;43078;52.972;6.482;2023-05-02T13:29:44;12.30;93.40
57218;DHT22;43078;52.972;6.482;2023-05-02T13:32:10;12.40;92.60
57218;DHT22;43078;52.972;6.482;2023-05-02T13:34:36;12.40;92.20
57218;DHT22;43078;52.972;6.482;2023-05-02T13:37:02;12.40;92.20
57218;DHT22;43078;52.972;6.482;2023-05-02T13:39:27;12.40;92.30
57218;DHT22;43078;52.972;6.482;2023-05-02T13:41:53;12.40;92.40
57218;DHT22;43078;52.972;6.482;2023-05-02T13:44:19;12.40;91.70
57218;DHT22;43078;52.972;6.482;2023-05-02T13:46:44;12.40;91.60
57218;DHT22;43078;52.972;6.482;2023-05-02T13:49:10;12.40;90.40
57218;DHT22;43078;52.972;6.482;2023-05-02T13:51:35;12.40;92.00
57218;DHT22;43078;52.972;6.482;2023-05-02T13:54:01;12.50;93.50
57218;DHT22;43078;52.972;6.482;2023-05-02T13:56:27;12.50;92.10
57218;DHT22;43078;52.972;6.482;2023-05-02T13:58:53;12.50;90.70
57218;DHT22;43078;52.972;6.482;2023-05-02T14:01:18;12.50;91.00
57218;DHT22;43078;52.972;6.482;2023-05-02T14:03:44;12.50;90.70
57218;DHT22;43078;52.972;6.482;2023-05-02T14:06:09;12.40;90.40
57218;DHT22;43078;52.972;6.482;2023-05-02T14:08:35;12.30;90.20
57218;DHT22;43078;52.972;6.482;2023-05-02T14:11:01;12.30;91.00
57218;DHT22;43078;52.972;6.482;2023-05-02T14:13:27;12.30;91.60
57218;DHT22;43078;52.972;6.482;2023-05-02T14:15:53;12.30;90.40
57218;DHT22;43078;52.972;6.482;2023-05-02T14:18:19;12.30;87.70
57218;DHT22;43078;52.972;6.482;2023-05-02T14:20:45;12.30;87.70
57218;DHT22;43078;52.972;6.482;2023-05-02T14:23:11;12.30;89.20
57218;DHT22;43078;52.972;6.482;2023-05-02T14:25:36;12.20;89.60
57218;DHT22;43078;52.972;6.482;2023-05-02T14:28:03;12.30;90.40
57218;DHT22;43078;52.972;6.482;2023-05-02T14:30:28;12.30;88.80
57218;DHT22;43078;52.972;6.482;2023-05-02T14:32:55;12.40;87.50
57218;DHT22;43078;52.972;6.482;2023-05-02T14:35:21;12.30;88.20
57218;DHT22;43078;52.972;6.482;2023-05-02T14:37:46;12.30;90.80
57218;DHT22;43078;52.972;6.482;2023-05-02T14:40:12;12.40;91.00
57218;DHT22;43078;52.972;6.482;2023-05-02T14:42:41;12.40;90.60
57218;DHT22;43078;52.972;6.482;2023-05-02T14:45:08;12.40;90.90
57218;DHT22;43078;52.972;6.482;2023-05-02T14:47:34;12.50;91.20
57218;DHT22;43078;52.972;6.482;2023-05-02T14:50:01;12.50;91.50
57218;DHT22;43078;52.972;6.482;2023-05-02T14:52:27;12.60;90.30
57218;DHT22;43078;52.972;6.482;2023-05-02T14:54:53;12.60;91.50
57218;DHT22;43078;52.972;6.482;2023-05-02T14:57:19;12.60;91.10
57218;DHT22;43078;52.972;6.482;2023-05-02T14:59:44;12.70;91.20
57218;DHT22;43078;52.972;6.482;2023-05-02T15:02:10;12.70;92.40
57218;DHT22;43078;52.972;6.482;2023-05-02T15:04:36;12.70;92.80
57218;DHT22;43078;52.972;6.482;2023-05-02T15:07:04;12.80;93.10
57218;DHT22;43078;52.972;6.482;2023-05-02T15:09:31;12.80;92.30
57218;DHT22;43078;52.972;6.482;2023-05-02T15:11:56;12.90;93.40
57218;DHT22;43078;52.972;6.482;2023-05-02T15:14:23;12.90;92.00
57218;DHT22;43078;52.972;6.482;2023-05-02T15:16:49;12.80;90.80
57218;DHT22;43078;52.972;6.482;2023-05-02T15:19:15;12.80;90.90
57218;DHT22;43078;52.972;6.482;2023-05-02T15:21:40;12.80;91.00
57218;DHT22;43078;52.972;6.482;2023-05-02T15:24:06;12.80;91.70
57218;DHT22;43078;52.972;6.482;2023-05-02T15:26:32;12.80;92.10
57218;DHT22;43078;52.972;6.482;2023-05-02T15:28:57;12.80;90.60
57218;DHT22;43078;52.972;6.482;2023-05-02T15:31:23;12.80;92.00
57218;DHT22;43078;52.972;6.482;2023-05-02T15:33:49;12.80;93.20
57218;DHT22;43078;52.972;6.482;2023-05-02T15:36:15;12.90;93.10
57218;DHT22;43078;52.972;6.482;2023-05-02T15:38:41;12.90;91.60
57218;DHT22;43078;52.972;6.482;2023-05-02T15:41:08;13.00;91.30
57218;DHT22;43078;52.972;6.482;2023-05-02T15:43:35;13.00;91.10
57218;DHT22;43078;52.972;6.482;2023-05-02T15:46:01;13.00;89.80
57218;DHT22;43078;52.972;6.482;2023-05-02T15:48:31;13.00;87.90
57218;DHT22;43078;52.972;6.482;2023-05-02T15:51:00;13.00;90.80
57218;DHT22;43078;52.972;6.482;2023-05-02T15:53:27;13.10;90.70
57218;DHT22;43078;52.972;6.482;2023-05-02T15:55:52;13.10;92.60
57218;DHT22;43078;52.972;6.482;2023-05-02T15:58:19;13.10;91.60
57218;DHT22;43078;52.972;6.482;2023-05-02T16:00:45;13.10;90.90
57218;DHT22;43078;52.972;6.482;2023-05-02T16:03:12;13.20;92.30
57218;DHT22;43078;52.972;6.482;2023-05-02T16:05:38;13.20;91.40
57218;DHT22;43078;52.972;6.482;2023-05-02T16:08:04;13.30;91.90
57218;DHT22;43078;52.972;6.482;2023-05-02T16:10:30;13.30;90.20
57218;DHT22;43078;52.972;6.482;2023-05-02T16:12:55;13.20;90.40